sensor_id;sensor_type;location;lat;lon;timestamp;pressure;altitude;pressure_sealevel;temperature;humidity
37648;BME280;23490;53.656;10.076;2023-03-04T00:00:36;99548.13;;;-145.95;95.20
37648;BME280;23490;53.656;10.076;2023-03-04T00:03:01;99500.63;;;-145.95;94.92
37648;BME280;23490;53.656;10.076;2023-03-04T00:05:26;99533.66;;;-145.95;94.73
37648;BME280;23490;53.656;10.076;2023-03-04T00:07:52;99537.78;;;-145.95;94.94
37648;BME280;23490;53.656;10.076;2023-03-04T00:10:17;99513.00;;;-145.95;94.82
37648;BME280;23490;53.656;10.076;2023-03-04T00:12:42;99525.41;;;-145.95;94.92
37648;BME280;23490;53.656;10.076;2023-03-04T00:15:08;99508.88;;;-145.95;94.35
37648;BME280;23490;53.656;10.076;2023-03-04T00:17:33;99544.00;;;-145.95;94.16
37648;BME280;23490;53.656;10.076;2023-03-04T00:19:59;99558.44;;;-145.95;94.17
37648;BME280;23490;53.656;10.076;2023-03-04T00:22:24;99550.19;;;-145.95;94.37
37648;BME280;23490;53.656;10.076;2023-03-04T00:24:49;99527.47;;;-145.95;93.55
37648;BME280;23490;53.656;10.076;2023-03-04T00:27:15;99492.34;;;-145.95;94.15
37648;BME280;23490;53.656;10.076;2023-03-04T00:29:40;99515.06;;;-145.95;93.98
37648;BME280;23490;53.656;10.076;2023-03-04T00:32:05;99574.97;;;-145.95;93.78
37648;BME280;23490;53.656;10.076;2023-03-04T00:34:31;99525.41;;;-145.95;93.34
37648;BME280;23490;53.656;10.076;2023-03-04T00:36:56;99517.13;;;-145.95;93.88
37648;BME280;23490;53.656;10.076;2023-03-04T00:39:26;99525.41;;;-145.95;93.40
37648;BME280;23490;53.656;10.076;2023-03-04T00:41:52;99504.75;;;-145.95;94.15
37648;BME280;23490;53.656;10.076;2023-03-04T00:44:17;99517.13;;;-145.95;94.37
37648;BME280;23490;53.656;10.076;2023-03-04T00:46:43;99533.66;;;-145.95;94.37
37648;BME280;23490;53.656;10.076;2023-03-04T00:49:08;99504.75;;;-145.95;93.48
37648;BME280;23490;53.656;10.076;2023-03-04T00:51:33;99521.28;;;-145.95;93.46
37648;BME280;23490;53.656;10.076;2023-03-04T00:53:59;99550.19;;;-145.95;93.34
37648;BME280;23490;53.656;10.076;2023-03-04T00:56:24;99541.91;;;-145.95;93.12
37648;BME280;23490;53.656;10.076;2023-03-04T00:58:49;99537.78;;;-145.95;94.04
37648;BME280;23490;53.656;10.076;2023-03-04T01:01:15;99533.66;;;-145.95;93.79
37648;BME280;23490;53.656;10.076;2023-03-04T01:03:40;99537.78;;;-145.95;92.83
37648;BME280;23490;53.656;10.076;2023-03-04T01:06:07;99546.06;;;-145.95;92.32
37648;BME280;23490;53.656;10.076;2023-03-04T01:08:32;99529.53;;;-145.95;91.72
37648;BME280;23490;53.656;10.076;2023-03-04T01:10:57;99479.97;;;-145.95;91.82
37648;BME280;23490;53.656;10.076;2023-03-04T01:13:23;99504.75;;;-145.95;91.98
37648;BME280;23490;53.656;10.076;2023-03-04T01:15:48;99513.00;;;-145.95;92.27
37648;BME280;23490;53.656;10.076;2023-03-04T01:18:13;99504.75;;;-145.95;91.94
37648;BME280;23490;53.656;10.076;2023-03-04T01:20:39;99494.41;;;-145.95;92.35
37648;BME280;23490;53.656;10.076;2023-03-04T01:23:04;99521.28;;;-145.95;92.05
37648;BME280;23490;53.656;10.076;2023-03-04T01:25:30;99475.84;;;-145.95;92.07
37648;BME280;23490;53.656;10.076;2023-03-04T01:27:55;99504.75;;;-145.95;92.25
37648;BME280;23490;53.656;10.076;2023-03-04T01:30:21;99517.13;;;-145.95;92.95
37648;BME280;23490;53.656;10.076;2023-03-04T01:32:46;99531.59;;;-145.95;92.13
37648;BME280;23490;53.656;10.076;2023-03-04T01:35:11;99484.09;;;-145.95;92.02
37648;BME280;23490;53.656;10.076;2023-03-04T01:37:37;99517.13;;;-145.95;91.85
37648;BME280;23490;53.656;10.076;2023-03-04T01:40:02;99531.59;;;-145.95;92.15
37648;BME280;23490;53.656;10.076;2023-03-04T01:42:32;99517.13;;;-145.95;91.90
37648;BME280;23490;53.656;10.076;2023-03-04T01:44:58;99517.13;;;-145.95;92.05
37648;BME280;23490;53.656;10.076;2023-03-04T01:47:27;99492.34;;;-145.95;92.67
37648;BME280;23490;53.656;10.076;2023-03-04T01:49:55;99508.88;;;-145.95;92.49
37648;BME280;23490;53.656;10.076;2023-03-04T01:52:21;99492.34;;;-145.95;92.79
37648;BME280;23490;53.656;10.076;2023-03-04T01:54:47;99486.16;;;-145.95;92.65
37648;BME280;23490;53.656;10.076;2023-03-04T01:57:21;99506.81;;;-145.95;92.62
37648;BME280;23490;53.656;10.076;2023-03-04T02:00:17;99521.28;;;-145.95;92.55
37648;BME280;23490;53.656;10.076;2023-03-04T02:02:43;99488.22;;;-145.95;92.62
37648;BME280;23490;53.656;10.076;2023-03-04T02:05:08;99527.47;;;-145.95;93.13
37648;BME280;23490;53.656;10.076;2023-03-04T02:07:34;99523.34;;;-145.95;92.71
37648;BME280;23490;53.656;10.076;2023-03-04T02:09:59;99521.28;;;-145.95;92.59
37648;BME280;23490;53.656;10.076;2023-03-04T02:12:25;99496.47;;;-145.95;93.03
37648;BME280;23490;53.656;10.076;2023-03-04T02:14:50;99500.63;;;-145.95;93.16
37648;BME280;23490;53.656;10.076;2023-03-04T02:17:15;99479.97;;;-145.95;93.83
37648;BME280;23490;53.656;10.076;2023-03-04T02:19:50;99482.03;;;-145.95;94.30
37648;BME280;23490;53.656;10.076;2023-03-04T02:22:19;99475.84;;;-145.95;93.75
37648;BME280;23490;53.656;10.076;2023-03-04T02:24:56;99510.94;;;-145.95;94.13
37648;BME280;23490;53.656;10.076;2023-03-04T02:27:24;99513.00;;;-145.95;94.33
37648;BME280;23490;53.656;10.076;2023-03-04T02:29:49;99541.91;;;-145.95;93.86
37648;BME280;23490;53.656;10.076;2023-03-04T02:32:15;99500.63;;;-145.95;93.88
37648;BME280;23490;53.656;10.076;2023-03-04T02:34:50;99525.41;;;-145.95;93.88
37648;BME280;23490;53.656;10.076;2023-03-04T02:37:18;99488.22;;;-145.95;94.33
37648;BME280;23490;53.656;10.076;2023-03-04T02:39:45;99525.41;;;-145.95;94.74
37648;BME280;23490;53.656;10.076;2023-03-04T02:42:12;99525.41;;;-145.95;95.08
37648;BME280;23490;53.656;10.076;2023-03-04T02:44:40;99506.81;;;-145.95;95.38
37648;BME280;23490;53.656;10.076;2023-03-04T02:47:09;99521.28;;;-145.95;95.81
37648;BME280;23490;53.656;10.076;2023-03-04T02:49:36;99504.75;;;-145.95;96.23
37648;BME280;23490;53.656;10.076;2023-03-04T02:52:11;99541.91;;;-145.95;96.31
37648;BME280;23490;53.656;10.076;2023-03-04T02:54:37;99546.06;;;-145.95;96.92
37648;BME280;23490;53.656;10.076;2023-03-04T02:57:06;99525.41;;;-145.95;97.33
37648;BME280;23490;53.656;10.076;2023-03-04T02:59:32;99533.66;;;-145.95;96.99
37648;BME280;23490;53.656;10.076;2023-03-04T03:01:58;99533.66;;;-145.95;97.02
37648;BME280;23490;53.656;10.076;2023-03-04T03:04:24;99504.75;;;-145.95;96.97
37648;BME280;23490;53.656;10.076;2023-03-04T03:06:50;99535.72;;;-145.95;97.02
37648;BME280;23490;53.656;10.076;2023-03-04T03:09:15;99496.47;;;-145.95;97.45
37648;BME280;23490;53.656;10.076;2023-03-04T03:11:41;99508.88;;;-145.95;97.76
37648;BME280;23490;53.656;10.076;2023-03-04T03:14:06;99500.63;;;-145.95;97.85
37648;BME280;23490;53.656;10.076;2023-03-04T03:16:32;99508.88;;;-145.95;98.39
37648;BME280;23490;53.656;10.076;2023-03-04T03:18:58;99527.47;;;-145.95;98.15
37648;BME280;23490;53.656;10.076;2023-03-04T03:21:23;99504.75;;;-145.95;98.20
37648;BME280;23490;53.656;10.076;2023-03-04T03:23:49;99506.81;;;-145.95;97.49
37648;BME280;23490;53.656;10.076;2023-03-04T03:26:15;99508.88;;;-145.95;97.12
37648;BME280;23490;53.656;10.076;2023-03-04T03:28:40;99517.13;;;-145.95;97.02
37648;BME280;23490;53.656;10.076;2023-03-04T03:31:05;99490.28;;;-145.95;96.21
37648;BME280;23490;53.656;10.076;2023-03-04T03:33:31;99508.88;;;-145.95;96.14
37648;BME280;23490;53.656;10.076;2023-03-04T03:35:56;99523.34;;;-145.95;95.26
37648;BME280;23490;53.656;10.076;2023-03-04T03:38:22;99500.63;;;-145.95;95.70
37648;BME280;23490;53.656;10.076;2023-03-04T03:40:47;99513.00;;;-145.95;95.51
37648;BME280;23490;53.656;10.076;2023-03-04T03:43:12;99500.63;;;-145.95;95.60
37648;BME280;23490;53.656;10.076;2023-03-04T03:45:38;99513.00;;;-145.95;95.77
37648;BME280;23490;53.656;10.076;2023-03-04T03:48:03;99541.91;;;-145.95;95.61
37648;BME280;23490;53.656;10.076;2023-03-04T03:50:29;99525.41;;;-145.95;96.11
37648;BME280;23490;53.656;10.076;2023-03-04T03:52:54;99533.66;;;-145.95;96.13
37648;BME280;23490;53.656;10.076;2023-03-04T03:55:20;99498.56;;;-145.95;97.30
37648;BME280;23490;53.656;10.076;2023-03-04T03:57:46;99508.88;;;-145.95;97.57
37648;BME280;23490;53.656;10.076;2023-03-04T04:00:12;99523.34;;;-145.95;97.95
37648;BME280;23490;53.656;10.076;2023-03-04T04:02:38;99492.34;;;-145.95;98.45
37648;BME280;23490;53.656;10.076;2023-03-04T04:05:04;99539.84;;;-145.95;97.45
37648;BME280;23490;53.656;10.076;2023-03-04T04:07:30;99488.22;;;-145.95;96.45
37648;BME280;23490;53.656;10.076;2023-03-04T04:09:56;99463.44;;;-145.95;96.82
37648;BME280;23490;53.656;10.076;2023-03-04T04:12:22;99525.41;;;-145.95;97.27
37648;BME280;23490;53.656;10.076;2023-03-04T04:14:47;99544.00;;;-145.95;96.94
37648;BME280;23490;53.656;10.076;2023-03-04T04:17:12;99496.47;;;-145.95;96.89
37648;BME280;23490;53.656;10.076;2023-03-04T04:19:39;99508.88;;;-145.95;96.82
37648;BME280;23490;53.656;10.076;2023-03-04T04:22:06;99521.28;;;-145.95;97.59
37648;BME280;23490;53.656;10.076;2023-03-04T04:24:32;99504.75;;;-145.95;96.99
37648;BME280;23490;53.656;10.076;2023-03-04T04:26:58;99508.88;;;-145.95;97.75
37648;BME280;23490;53.656;10.076;2023-03-04T04:29:23;99523.34;;;-145.95;96.94
37648;BME280;23490;53.656;10.076;2023-03-04T04:31:48;99484.09;;;-145.95;95.54
37648;BME280;23490;53.656;10.076;2023-03-04T04:34:14;99504.75;;;-145.95;95.99
37648;BME280;23490;53.656;10.076;2023-03-04T04:36:39;99513.00;;;-145.95;95.36
37648;BME280;23490;53.656;10.076;2023-03-04T04:39:05;99492.34;;;-145.95;94.28
37648;BME280;23490;53.656;10.076;2023-03-04T04:41:35;99510.94;;;-145.95;93.92
37648;BME280;23490;53.656;10.076;2023-03-04T04:44:01;99500.63;;;-145.95;93.73
37648;BME280;23490;53.656;10.076;2023-03-04T04:46:26;99517.13;;;-145.95;92.60
37648;BME280;23490;53.656;10.076;2023-03-04T04:48:52;99548.13;;;-145.95;89.32
37648;BME280;23490;53.656;10.076;2023-03-04T04:51:17;99546.06;;;-145.95;88.21
37648;BME280;23490;53.656;10.076;2023-03-04T04:53:43;99517.13;;;-145.95;86.81
37648;BME280;23490;53.656;10.076;2023-03-04T04:56:15;99463.44;;;-145.95;86.60
37648;BME280;23490;53.656;10.076;2023-03-04T04:58:41;99477.91;;;-145.95;85.59
37648;BME280;23490;53.656;10.076;2023-03-04T05:01:07;99517.13;;;-145.95;85.02
37648;BME280;23490;53.656;10.076;2023-03-04T05:03:34;99502.69;;;-145.95;84.45
37648;BME280;23490;53.656;10.076;2023-03-04T05:06:00;99484.09;;;-145.95;84.04
37648;BME280;23490;53.656;10.076;2023-03-04T05:08:25;99492.34;;;-145.95;83.15
37648;BME280;23490;53.656;10.076;2023-03-04T05:10:51;99537.78;;;-145.95;83.72
37648;BME280;23490;53.656;10.076;2023-03-04T05:13:17;99500.63;;;-145.95;83.94
37648;BME280;23490;53.656;10.076;2023-03-04T05:15:44;99513.00;;;-145.95;84.30
37648;BME280;23490;53.656;10.076;2023-03-04T05:18:09;99519.22;;;-145.95;84.28
37648;BME280;23490;53.656;10.076;2023-03-04T05:20:35;99492.34;;;-145.95;85.04
37648;BME280;23490;53.656;10.076;2023-03-04T05:23:00;99529.53;;;-145.95;84.76
37648;BME280;23490;53.656;10.076;2023-03-04T05:25:25;99533.66;;;-145.95;84.30
37648;BME280;23490;53.656;10.076;2023-03-04T05:27:51;99488.22;;;-145.95;84.25
37648;BME280;23490;53.656;10.076;2023-03-04T05:30:16;99484.09;;;-145.95;84.52
37648;BME280;23490;53.656;10.076;2023-03-04T05:32:42;99517.13;;;-145.95;84.06
37648;BME280;23490;53.656;10.076;2023-03-04T05:35:07;99539.84;;;-145.95;83.12
37648;BME280;23490;53.656;10.076;2023-03-04T05:37:33;99513.00;;;-145.95;83.21
37648;BME280;23490;53.656;10.076;2023-03-04T05:39:58;99521.28;;;-145.95;82.03
37648;BME280;23490;53.656;10.076;2023-03-04T05:42:23;99529.53;;;-145.95;82.11
37648;BME280;23490;53.656;10.076;2023-03-04T05:44:49;99508.88;;;-145.95;81.22
37648;BME280;23490;53.656;10.076;2023-03-04T05:47:14;99508.88;;;-145.95;80.57
37648;BME280;23490;53.656;10.076;2023-03-04T05:49:39;99541.91;;;-145.95;81.88
37648;BME280;23490;53.656;10.076;2023-03-04T05:52:06;99504.75;;;-145.95;81.13
37648;BME280;23490;53.656;10.076;2023-03-04T05:54:31;99494.41;;;-145.95;80.80
37648;BME280;23490;53.656;10.076;2023-03-04T05:56:56;99508.88;;;-145.95;81.25
37648;BME280;23490;53.656;10.076;2023-03-04T05:59:22;99546.06;;;-145.95;80.40
37648;BME280;23490;53.656;10.076;2023-03-04T06:01:47;99560.50;;;-145.95;80.83
37648;BME280;23490;53.656;10.076;2023-03-04T06:04:13;99541.91;;;-145.95;81.13
37648;BME280;23490;53.656;10.076;2023-03-04T06:06:38;99504.75;;;-145.95;81.00
37648;BME280;23490;53.656;10.076;2023-03-04T06:09:03;99533.66;;;-145.95;81.11
37648;BME280;23490;53.656;10.076;2023-03-04T06:11:29;99525.41;;;-145.95;80.83
37648;BME280;23490;53.656;10.076;2023-03-04T06:13:55;99531.59;;;-145.95;82.21
37648;BME280;23490;53.656;10.076;2023-03-04T06:16:20;99513.00;;;-145.95;81.99
37648;BME280;23490;53.656;10.076;2023-03-04T06:18:45;99546.06;;;-145.95;81.81
37648;BME280;23490;53.656;10.076;2023-03-04T06:21:11;99488.22;;;-145.95;81.66
37648;BME280;23490;53.656;10.076;2023-03-04T06:23:36;99537.78;;;-145.95;81.28
37648;BME280;23490;53.656;10.076;2023-03-04T06:26:02;99554.31;;;-145.95;81.02
37648;BME280;23490;53.656;10.076;2023-03-04T06:28:28;99533.66;;;-145.95;80.02
37648;BME280;23490;53.656;10.076;2023-03-04T06:30:54;99500.63;;;-145.95;79.63
37648;BME280;23490;53.656;10.076;2023-03-04T06:33:20;99548.13;;;-145.95;78.64
37648;BME280;23490;53.656;10.076;2023-03-04T06:35:45;99548.13;;;-145.95;78.76
37648;BME280;23490;53.656;10.076;2023-03-04T06:38:11;99521.28;;;-145.95;79.55
37648;BME280;23490;53.656;10.076;2023-03-04T06:40:36;99523.34;;;-145.95;80.56
37648;BME280;23490;53.656;10.076;2023-03-04T06:43:02;99537.78;;;-145.95;79.78
37648;BME280;23490;53.656;10.076;2023-03-04T06:45:27;99527.47;;;-145.95;79.49
37648;BME280;23490;53.656;10.076;2023-03-04T06:47:52;99566.69;;;-145.95;79.32
37648;BME280;23490;53.656;10.076;2023-03-04T06:50:18;99502.69;;;-145.95;79.86
37648;BME280;23490;53.656;10.076;2023-03-04T06:52:43;99562.56;;;-145.95;80.18
37648;BME280;23490;53.656;10.076;2023-03-04T06:55:08;99539.84;;;-145.95;80.25
37648;BME280;23490;53.656;10.076;2023-03-04T06:57:34;99529.53;;;-145.95;80.62
37648;BME280;23490;53.656;10.076;2023-03-04T06:59:59;99533.66;;;-145.95;80.55
37648;BME280;23490;53.656;10.076;2023-03-04T07:02:25;99531.59;;;-145.95;81.25
37648;BME280;23490;53.656;10.076;2023-03-04T07:04:51;99515.06;;;-145.95;81.25
37648;BME280;23490;53.656;10.076;2023-03-04T07:07:16;99521.28;;;-145.95;80.75
37648;BME280;23490;53.656;10.076;2023-03-04T07:09:41;99556.38;;;-145.95;82.74
37648;BME280;23490;53.656;10.076;2023-03-04T07:12:08;99537.78;;;-145.95;81.18
37648;BME280;23490;53.656;10.076;2023-03-04T07:14:33;99525.41;;;-145.95;81.19
37648;BME280;23490;53.656;10.076;2023-03-04T07:16:58;99521.28;;;-145.95;80.44
37648;BME280;23490;53.656;10.076;2023-03-04T07:19:24;99529.53;;;-145.95;80.61
37648;BME280;23490;53.656;10.076;2023-03-04T07:21:49;99525.41;;;-145.95;80.07
37648;BME280;23490;53.656;10.076;2023-03-04T07:24:14;99568.78;;;-145.95;80.29
37648;BME280;23490;53.656;10.076;2023-03-04T07:26:40;99537.78;;;-145.95;79.40
37648;BME280;23490;53.656;10.076;2023-03-04T07:29:05;99546.06;;;-145.95;78.60
37648;BME280;23490;53.656;10.076;2023-03-04T07:31:33;99492.34;;;-145.95;77.58
37648;BME280;23490;53.656;10.076;2023-03-04T07:34:00;99546.06;;;-145.95;78.36
37648;BME280;23490;53.656;10.076;2023-03-04T07:36:27;99504.75;;;-145.95;78.23
37648;BME280;23490;53.656;10.076;2023-03-04T07:38:53;99494.41;;;-145.95;78.04
37648;BME280;23490;53.656;10.076;2023-03-04T07:41:23;99529.53;;;-145.95;77.52
37648;BME280;23490;53.656;10.076;2023-03-04T07:43:49;99504.75;;;-145.95;77.81
37648;BME280;23490;53.656;10.076;2023-03-04T07:46:15;99546.06;;;-145.95;77.21
37648;BME280;23490;53.656;10.076;2023-03-04T07:48:40;99500.63;;;-145.95;76.86
37648;BME280;23490;53.656;10.076;2023-03-04T07:51:09;99498.56;;;-145.95;75.93
37648;BME280;23490;53.656;10.076;2023-03-04T07:53:36;99479.97;;;-145.95;75.62
37648;BME280;23490;53.656;10.076;2023-03-04T07:56:03;99525.41;;;-145.95;75.19
37648;BME280;23490;53.656;10.076;2023-03-04T07:58:28;99508.88;;;-145.95;74.83
37648;BME280;23490;53.656;10.076;2023-03-04T08:00:54;99535.72;;;-145.95;74.83
37648;BME280;23490;53.656;10.076;2023-03-04T08:03:19;99546.06;;;-145.95;74.56
37648;BME280;23490;53.656;10.076;2023-03-04T08:05:45;99550.19;;;-145.95;73.97
37648;BME280;23490;53.656;10.076;2023-03-04T08:08:10;99484.09;;;-145.95;74.21
37648;BME280;23490;53.656;10.076;2023-03-04T08:10:36;99504.75;;;-145.95;73.86
37648;BME280;23490;53.656;10.076;2023-03-04T08:13:04;99541.91;;;-145.95;75.06
37648;BME280;23490;53.656;10.076;2023-03-04T08:15:30;99521.28;;;-145.95;74.71
37648;BME280;23490;53.656;10.076;2023-03-04T08:17:57;99533.66;;;-145.95;74.86
37648;BME280;23490;53.656;10.076;2023-03-04T08:20:22;99525.41;;;-145.95;75.20
37648;BME280;23490;53.656;10.076;2023-03-04T08:22:48;99533.66;;;-145.95;75.38
37648;BME280;23490;53.656;10.076;2023-03-04T08:25:13;99484.09;;;-145.95;74.63
37648;BME280;23490;53.656;10.076;2023-03-04T08:27:39;99515.06;;;-145.95;73.88
37648;BME280;23490;53.656;10.076;2023-03-04T08:30:04;99500.63;;;-145.95;73.45
37648;BME280;23490;53.656;10.076;2023-03-04T08:32:30;99496.47;;;-145.95;74.03
37648;BME280;23490;53.656;10.076;2023-03-04T08:34:55;99533.66;;;-145.95;73.17
37648;BME280;23490;53.656;10.076;2023-03-04T08:37:21;99513.00;;;-145.95;73.49
37648;BME280;23490;53.656;10.076;2023-03-04T08:39:47;99546.06;;;-145.95;73.44
37648;BME280;23490;53.656;10.076;2023-03-04T08:42:12;99484.09;;;-145.95;72.84
37648;BME280;23490;53.656;10.076;2023-03-04T08:44:37;99529.53;;;-145.95;73.36
37648;BME280;23490;53.656;10.076;2023-03-04T08:47:03;99529.53;;;-145.95;73.38
37648;BME280;23490;53.656;10.076;2023-03-04T08:49:28;99508.88;;;-145.95;72.78
37648;BME280;23490;53.656;10.076;2023-03-04T08:51:53;99496.47;;;-145.95;73.29
37648;BME280;23490;53.656;10.076;2023-03-04T08:54:19;99492.34;;;-145.95;73.40
37648;BME280;23490;53.656;10.076;2023-03-04T08:56:44;99513.00;;;-145.95;73.73
37648;BME280;23490;53.656;10.076;2023-03-04T08:59:10;99498.56;;;-145.95;74.09
37648;BME280;23490;53.656;10.076;2023-03-04T09:01:36;99486.16;;;-145.95;73.42
37648;BME280;23490;53.656;10.076;2023-03-04T09:04:02;99484.09;;;-145.95;72.12
37648;BME280;23490;53.656;10.076;2023-03-04T09:06:27;99517.13;;;-145.95;71.59
37648;BME280;23490;53.656;10.076;2023-03-04T09:08:53;99467.56;;;-145.95;70.57
37648;BME280;23490;53.656;10.076;2023-03-04T09:11:18;99484.09;;;-145.95;69.65
37648;BME280;23490;53.656;10.076;2023-03-04T09:13:43;99517.13;;;-145.95;69.58
37648;BME280;23490;53.656;10.076;2023-03-04T09:16:11;99500.63;;;-145.95;70.78
37648;BME280;23490;53.656;10.076;2023-03-04T09:18:37;99506.81;;;-145.95;70.86
37648;BME280;23490;53.656;10.076;2023-03-04T09:21:04;99550.19;;;-145.95;70.62
37648;BME280;23490;53.656;10.076;2023-03-04T09:23:30;99484.09;;;-145.95;70.56
37648;BME280;23490;53.656;10.076;2023-03-04T09:25:55;99492.34;;;-145.95;70.18
37648;BME280;23490;53.656;10.076;2023-03-04T09:28:21;99457.25;;;-145.95;70.08
37648;BME280;23490;53.656;10.076;2023-03-04T09:30:46;99496.47;;;-145.95;70.23
37648;BME280;23490;53.656;10.076;2023-03-04T09:33:12;99463.44;;;-145.95;69.76
37648;BME280;23490;53.656;10.076;2023-03-04T09:35:37;99475.84;;;-145.95;69.03
37648;BME280;23490;53.656;10.076;2023-03-04T09:38:03;99504.75;;;-145.95;69.70
37648;BME280;23490;53.656;10.076;2023-03-04T09:40:35;99479.97;;;-145.95;70.15
37648;BME280;23490;53.656;10.076;2023-03-04T09:43:03;99459.31;;;-145.95;69.17
37648;BME280;23490;53.656;10.076;2023-03-04T09:45:52;99477.91;;;-145.95;69.43
37648;BME280;23490;53.656;10.076;2023-03-04T09:48:21;99471.69;;;-145.95;69.72
37648;BME280;23490;53.656;10.076;2023-03-04T09:54:08;99438.66;;;-145.95;66.51
37648;BME280;23490;53.656;10.076;2023-03-04T09:56:36;99463.44;;;-145.95;65.43
37648;BME280;23490;53.656;10.076;2023-03-04T09:59:23;99448.97;;;-145.95;65.65
37648;BME280;23490;53.656;10.076;2023-03-04T10:01:54;99418.00;;;-145.95;64.75
37648;BME280;23490;53.656;10.076;2023-03-04T10:04:40;99415.94;;;-145.95;64.76
37648;BME280;23490;53.656;10.076;2023-03-04T10:07:29;99420.06;;;-145.95;64.60
37648;BME280;23490;53.656;10.076;2023-03-04T10:10:02;99438.66;;;-145.95;63.76
37648;BME280;23490;53.656;10.076;2023-03-04T10:12:31;99442.78;;;-145.95;64.86
37648;BME280;23490;53.656;10.076;2023-03-04T10:17:34;99440.72;;;-145.95;65.17
37648;BME280;23490;53.656;10.076;2023-03-04T10:20:08;99446.91;;;-145.95;64.67
37648;BME280;23490;53.656;10.076;2023-03-04T10:22:43;99422.13;;;-145.95;64.94
37648;BME280;23490;53.656;10.076;2023-03-04T10:27:58;99426.28;;;-145.95;64.58
37648;BME280;23490;53.656;10.076;2023-03-04T10:33:17;99422.13;;;-145.95;64.24
37648;BME280;23490;53.656;10.076;2023-03-04T10:35:49;99434.53;;;-145.95;65.82
37648;BME280;23490;53.656;10.076;2023-03-04T10:38:18;99451.06;;;-145.95;65.83
37648;BME280;23490;53.656;10.076;2023-03-04T10:40:44;99451.06;;;-145.95;65.92
37648;BME280;23490;53.656;10.076;2023-03-04T10:43:17;99401.50;;;-145.95;64.78
37648;BME280;23490;53.656;10.076;2023-03-04T10:45:43;99422.13;;;-145.95;65.04
37648;BME280;23490;53.656;10.076;2023-03-04T10:48:23;99405.63;;;-145.95;64.49
37648;BME280;23490;53.656;10.076;2023-03-04T10:50:49;99413.88;;;-145.95;64.56
37648;BME280;23490;53.656;10.076;2023-03-04T10:53:31;99366.38;;;-145.95;63.08
37648;BME280;23490;53.656;10.076;2023-03-04T10:55:58;99389.09;;;-145.95;62.73
37648;BME280;23490;53.656;10.076;2023-03-04T10:58:23;99397.34;;;-145.95;63.09
37648;BME280;23490;53.656;10.076;2023-03-04T11:01:03;99384.97;;;-145.95;63.41
37648;BME280;23490;53.656;10.076;2023-03-04T11:03:35;99364.31;;;-145.95;62.80
37648;BME280;23490;53.656;10.076;2023-03-04T11:06:16;99382.91;;;-145.95;63.35
37648;BME280;23490;53.656;10.076;2023-03-04T11:08:43;99354.00;;;-145.95;63.03
37648;BME280;23490;53.656;10.076;2023-03-04T11:11:30;99409.75;;;-145.95;63.07
37648;BME280;23490;53.656;10.076;2023-03-04T11:14:00;99376.69;;;-145.95;63.01
37648;BME280;23490;53.656;10.076;2023-03-04T11:16:29;99335.41;;;-145.95;63.89
37648;BME280;23490;53.656;10.076;2023-03-04T11:19:03;99327.13;;;-145.95;64.33
37648;BME280;23490;53.656;10.076;2023-03-04T11:21:36;99399.41;;;-145.95;62.77
37648;BME280;23490;53.656;10.076;2023-03-04T11:24:10;99376.69;;;-145.95;61.83
37648;BME280;23490;53.656;10.076;2023-03-04T11:26:41;99364.31;;;-145.95;60.99
37648;BME280;23490;53.656;10.076;2023-03-04T11:29:27;99296.16;;;-145.95;60.55
37648;BME280;23490;53.656;10.076;2023-03-04T11:32:14;99304.41;;;-145.95;59.46
37648;BME280;23490;53.656;10.076;2023-03-04T11:34:56;99300.28;;;-145.95;59.94
37648;BME280;23490;53.656;10.076;2023-03-04T11:37:43;99244.53;;;-145.95;58.04
37648;BME280;23490;53.656;10.076;2023-03-04T11:40:14;99250.72;;;-145.95;58.40
37648;BME280;23490;53.656;10.076;2023-03-04T11:42:50;99211.50;;;-145.95;56.99
37648;BME280;23490;53.656;10.076;2023-03-04T11:51:43;99279.63;;;-145.95;57.47
37648;BME280;23490;53.656;10.076;2023-03-04T11:54:19;99228.00;;;-145.95;56.48
37648;BME280;23490;53.656;10.076;2023-03-04T11:56:50;99207.38;;;-145.95;56.64
37648;BME280;23490;53.656;10.076;2023-03-04T12:14:43;99221.81;;;-145.95;57.01
37648;BME280;23490;53.656;10.076;2023-03-04T12:20:07;99242.47;;;-145.95;57.07
37648;BME280;23490;53.656;10.076;2023-03-04T12:22:45;99248.66;;;-145.95;56.81
37648;BME280;23490;53.656;10.076;2023-03-04T12:25:24;99281.72;;;-145.95;57.15
37648;BME280;23490;53.656;10.076;2023-03-04T12:34:06;99294.09;;;-145.95;57.61
37648;BME280;23490;53.656;10.076;2023-03-04T12:39:38;99252.78;;;-145.95;58.07
37648;BME280;23490;53.656;10.076;2023-03-04T12:44:47;99256.94;;;-145.95;56.76
37648;BME280;23490;53.656;10.076;2023-03-04T12:47:31;99294.09;;;-145.95;57.77
37648;BME280;23490;53.656;10.076;2023-03-04T12:55:52;99120.63;;;-145.95;54.17
37648;BME280;23490;53.656;10.076;2023-03-04T12:58:25;99116.50;;;-145.95;53.85
37648;BME280;23490;53.656;10.076;2023-03-04T13:00:58;99182.59;;;-145.95;53.90
37648;BME280;23490;53.656;10.076;2023-03-04T13:03:52;99223.88;;;-145.95;56.03
37648;BME280;23490;53.656;10.076;2023-03-04T13:06:27;99221.81;;;-145.95;55.96
37648;BME280;23490;53.656;10.076;2023-03-04T13:09:06;99201.16;;;-145.95;56.38
37648;BME280;23490;53.656;10.076;2023-03-04T13:11:51;99265.19;;;-145.95;57.56
37648;BME280;23490;53.656;10.076;2023-03-04T13:16:54;99256.94;;;-145.95;59.54
37648;BME280;23490;53.656;10.076;2023-03-04T13:24:50;99213.56;;;-145.95;57.31
37648;BME280;23490;53.656;10.076;2023-03-04T13:27:44;99223.88;;;-145.95;56.58
37648;BME280;23490;53.656;10.076;2023-03-04T13:32:58;99207.38;;;-145.95;56.47
37648;BME280;23490;53.656;10.076;2023-03-04T13:38:20;99294.09;;;-145.95;57.31
37648;BME280;23490;53.656;10.076;2023-03-04T13:43:38;99269.31;;;-145.95;58.52